createdAt,value
2022-12-09T00:02:02.574Z,3.32
2022-12-09T00:04:29.299Z,3.32
2022-12-09T00:06:55.950Z,3.29
2022-12-09T00:09:22.643Z,3.26
2022-12-09T00:11:49.128Z,3.25
2022-12-09T00:14:15.663Z,3.23
2022-12-09T00:16:42.250Z,3.22
2022-12-09T00:19:08.835Z,3.19
2022-12-09T00:21:35.443Z,3.17
2022-12-09T00:24:07.671Z,3.13
2022-12-09T00:26:34.563Z,3.08
2022-12-09T00:29:01.818Z,3.03
2022-12-09T00:31:32.797Z,3.00
2022-12-09T00:34:03.495Z,2.96
2022-12-09T00:36:30.934Z,2.93
2022-12-09T00:38:58.707Z,2.87
2022-12-09T00:41:25.721Z,2.86
2022-12-09T00:43:52.486Z,2.86
2022-12-09T00:46:19.105Z,2.82
2022-12-09T00:48:46.503Z,2.79
2022-12-09T00:51:20.064Z,2.75
2022-12-09T00:53:47.513Z,2.71
2022-12-09T00:56:14.754Z,2.66
2022-12-09T00:58:41.320Z,2.63
2022-12-09T01:01:07.887Z,2.61
2022-12-09T01:03:34.725Z,2.59
2022-12-09T01:06:01.599Z,2.56
2022-12-09T01:08:28.147Z,2.54
2022-12-09T01:10:55.099Z,2.51
2022-12-09T01:13:21.660Z,2.46
2022-12-09T01:15:48.324Z,2.43
2022-12-09T01:18:15.038Z,2.41
2022-12-09T01:20:41.578Z,2.38
2022-12-09T01:23:08.461Z,2.36
2022-12-09T01:25:34.996Z,2.34
2022-12-09T01:28:01.775Z,2.31
2022-12-09T01:30:28.436Z,2.31
2022-12-09T01:32:54.972Z,2.31
2022-12-09T01:35:21.784Z,2.31
2022-12-09T01:37:49.014Z,2.33
2022-12-09T01:40:17.720Z,2.32
2022-12-09T01:42:45.041Z,2.31
2022-12-09T01:45:20.859Z,2.34
2022-12-09T01:47:54.377Z,2.32
2022-12-09T01:50:21.379Z,2.33
2022-12-09T01:52:49.863Z,2.35
2022-12-09T01:55:17.539Z,2.35
2022-12-09T01:57:45.689Z,2.31
2022-12-09T02:00:13.786Z,2.31
2022-12-09T02:02:46.872Z,2.34
2022-12-09T02:05:16.229Z,2.35
2022-12-09T02:07:47.058Z,2.33
2022-12-09T02:10:17.429Z,2.29
2022-12-09T02:13:06.018Z,2.25
2022-12-09T02:15:42.363Z,2.20
2022-12-09T02:18:38.541Z,2.17
2022-12-09T02:21:16.083Z,2.14
2022-12-09T02:23:57.772Z,2.09
2022-12-09T02:26:40.776Z,2.05
2022-12-09T02:29:39.856Z,2.01
2022-12-09T02:32:30.732Z,1.96
2022-12-09T02:35:08.399Z,1.98
2022-12-09T02:38:15.060Z,1.97
2022-12-09T02:40:58.577Z,1.98
2022-12-09T02:43:31.714Z,2.00
2022-12-09T02:46:00.482Z,2.00
2022-12-09T02:48:34.828Z,2.00
2022-12-09T02:51:07.511Z,1.99
2022-12-09T02:53:38.065Z,1.98
2022-12-09T02:56:07.453Z,1.96
2022-12-09T02:58:35.189Z,1.92
2022-12-09T03:01:01.993Z,1.90
2022-12-09T03:03:34.075Z,1.88
2022-12-09T03:06:08.314Z,1.87
2022-12-09T03:08:50.781Z,1.85
2022-12-09T03:11:20.138Z,1.83
2022-12-09T03:14:01.314Z,1.81
2022-12-09T03:16:42.489Z,1.79
2022-12-09T03:19:19.905Z,1.76
2022-12-09T03:21:48.866Z,1.73
2022-12-09T03:24:21.122Z,1.72
2022-12-09T03:26:49.740Z,1.69
2022-12-09T03:29:20.978Z,1.72
2022-12-09T03:31:49.322Z,1.72
2022-12-09T03:34:20.080Z,1.69
2022-12-09T03:36:49.208Z,1.69
2022-12-09T03:39:21.224Z,1.69
2022-12-09T03:41:52.981Z,1.67
2022-12-09T03:44:25.023Z,1.65
2022-12-09T03:46:51.963Z,1.63
2022-12-09T03:49:18.973Z,1.59
2022-12-09T03:52:07.931Z,1.57
2022-12-09T03:54:46.100Z,1.54
2022-12-09T03:57:18.760Z,1.49
2022-12-09T03:59:52.735Z,1.46
2022-12-09T04:02:20.348Z,1.44
2022-12-09T04:04:47.515Z,1.40
2022-12-09T04:07:14.414Z,1.36
2022-12-09T04:09:41.352Z,1.34
2022-12-09T04:12:08.259Z,1.31
2022-12-09T04:14:35.031Z,1.27
2022-12-09T04:17:02.364Z,1.27
2022-12-09T04:19:28.963Z,1.26
2022-12-09T04:21:55.418Z,1.24
2022-12-09T04:24:22.103Z,1.18
2022-12-09T04:26:48.892Z,1.14
2022-12-09T04:29:15.409Z,1.16
2022-12-09T04:31:42.213Z,1.15
2022-12-09T04:34:09.791Z,1.13
2022-12-09T04:36:37.437Z,1.08
2022-12-09T04:39:04.219Z,1.05
2022-12-09T04:41:30.994Z,1.03
2022-12-09T04:43:57.588Z,1.01
2022-12-09T04:46:24.899Z,0.97
2022-12-09T04:48:52.739Z,0.92
2022-12-09T04:51:19.550Z,0.88
2022-12-09T04:53:46.354Z,0.86
2022-12-09T04:56:21.628Z,0.81
2022-12-09T04:58:50.002Z,0.78
2022-12-09T05:01:22.655Z,0.78
2022-12-09T05:03:54.120Z,0.79
2022-12-09T05:06:22.080Z,0.82
2022-12-09T05:08:49.377Z,0.81
2022-12-09T05:11:18.647Z,0.81
2022-12-09T05:13:45.976Z,0.82
2022-12-09T05:16:16.973Z,0.79
2022-12-09T05:18:45.043Z,0.79
2022-12-09T05:21:16.636Z,0.79
2022-12-09T05:23:43.879Z,0.76
2022-12-09T05:26:13.227Z,0.74
2022-12-09T05:28:40.221Z,0.73
2022-12-09T05:31:11.076Z,0.69
2022-12-09T05:33:38.023Z,0.70
2022-12-09T05:36:08.790Z,0.70
2022-12-09T05:38:35.446Z,0.70
2022-12-09T05:41:02.181Z,0.70
2022-12-09T05:43:28.928Z,0.71
2022-12-09T05:45:55.887Z,0.71
2022-12-09T05:48:22.752Z,0.69
2022-12-09T05:51:00.804Z,0.68
2022-12-09T05:53:27.833Z,0.68
2022-12-09T05:55:54.841Z,0.68
2022-12-09T05:58:21.703Z,0.67
2022-12-09T06:00:49.098Z,0.68
2022-12-09T06:03:16.215Z,0.66
2022-12-09T06:05:43.528Z,0.64
2022-12-09T06:08:10.661Z,0.67
2022-12-09T06:10:41.379Z,0.68
2022-12-09T06:13:08.655Z,0.70
2022-12-09T06:15:35.485Z,0.69
2022-12-09T06:18:03.053Z,0.68
2022-12-09T06:20:30.005Z,0.67
2022-12-09T06:22:57.023Z,0.66
2022-12-09T06:25:24.003Z,0.64
2022-12-09T06:27:51.930Z,0.62
2022-12-09T06:30:18.548Z,0.62
2022-12-09T06:32:45.965Z,0.60
2022-12-09T06:35:13.440Z,0.57
2022-12-09T06:37:40.391Z,0.58
2022-12-09T06:40:07.916Z,0.59
2022-12-09T06:42:34.935Z,0.59
2022-12-09T06:45:01.849Z,0.61
2022-12-09T06:47:28.506Z,0.61
2022-12-09T06:50:04.373Z,0.64
2022-12-09T06:52:33.052Z,0.64
2022-12-09T06:54:59.949Z,0.62
2022-12-09T06:57:26.838Z,0.60
2022-12-09T06:59:53.864Z,0.58
2022-12-09T07:02:20.730Z,0.56
2022-12-09T07:04:47.868Z,0.57
2022-12-09T07:07:15.869Z,0.56
2022-12-09T07:09:42.760Z,0.58
2022-12-09T07:12:09.305Z,0.58
2022-12-09T07:14:36.930Z,0.57
2022-12-09T07:17:04.596Z,0.57
2022-12-09T07:19:31.502Z,0.57
2022-12-09T07:21:58.063Z,0.57
2022-12-09T07:24:25.492Z,0.58
2022-12-09T07:26:52.648Z,0.57
2022-12-09T07:29:19.569Z,0.62
2022-12-09T07:31:47.665Z,0.62
2022-12-09T07:34:14.512Z,0.59
2022-12-09T07:36:41.516Z,0.55
2022-12-09T07:39:12.193Z,0.64
2022-12-09T07:41:40.010Z,0.68
2022-12-09T07:44:06.852Z,0.67
2022-12-09T07:46:34.010Z,0.65
2022-12-09T07:49:02.753Z,0.62
2022-12-09T07:51:30.300Z,0.61
2022-12-09T07:53:57.291Z,0.59
2022-12-09T07:56:24.862Z,0.59
2022-12-09T07:58:53.345Z,0.59
2022-12-09T08:01:26.901Z,0.60
2022-12-09T08:03:54.498Z,0.62
2022-12-09T08:06:24.456Z,0.65
2022-12-09T08:08:51.969Z,0.67
2022-12-09T08:11:22.311Z,0.70
2022-12-09T08:13:49.721Z,0.73
2022-12-09T08:16:18.537Z,0.74
2022-12-09T08:18:46.324Z,0.74
2022-12-09T08:21:21.199Z,0.78
2022-12-09T08:23:48.717Z,0.79
2022-12-09T08:26:17.895Z,0.80
2022-12-09T08:28:44.543Z,0.80
2022-12-09T08:31:16.605Z,0.82
2022-12-09T08:33:43.496Z,0.83
2022-12-09T08:36:13.867Z,0.86
2022-12-09T08:38:40.762Z,0.86
2022-12-09T08:41:20.904Z,0.87
2022-12-09T08:43:48.460Z,0.86
2022-12-09T08:46:15.538Z,0.89
2022-12-09T08:48:43.525Z,0.92
2022-12-09T08:51:12.296Z,0.97
2022-12-09T08:53:39.959Z,1.02
2022-12-09T08:56:14.592Z,1.06
2022-12-09T08:58:42.373Z,1.10
2022-12-09T09:01:16.401Z,1.13
2022-12-09T09:03:43.785Z,1.14
2022-12-09T09:06:11.476Z,1.15
2022-12-09T09:08:39.415Z,1.16
2022-12-09T09:11:11.350Z,1.14
2022-12-09T09:13:39.944Z,1.12
2022-12-09T09:16:16.610Z,1.12
2022-12-09T09:18:43.798Z,1.11
2022-12-09T09:21:12.615Z,1.16
2022-12-09T09:23:41.428Z,1.18
2022-12-09T09:26:13.233Z,1.20
2022-12-09T09:28:40.623Z,1.23
2022-12-09T09:31:10.828Z,1.23
2022-12-09T09:33:38.103Z,1.25
2022-12-09T09:36:10.246Z,1.27
2022-12-09T09:38:37.613Z,1.28
2022-12-09T09:41:16.662Z,1.30
2022-12-09T09:43:44.584Z,1.30
2022-12-09T09:46:20.869Z,1.32
2022-12-09T09:48:48.900Z,1.33
2022-12-09T09:51:19.202Z,1.34
2022-12-09T09:53:50.671Z,1.34
2022-12-09T09:56:28.475Z,1.32
2022-12-09T09:59:17.781Z,1.30
2022-12-09T10:02:09.975Z,1.30
2022-12-09T10:04:54.041Z,1.29
2022-12-09T10:07:42.888Z,1.27
2022-12-09T10:10:31.557Z,1.25
2022-12-09T10:13:30.941Z,1.22
2022-12-09T10:16:12.548Z,1.23
2022-12-09T10:18:57.793Z,1.23
2022-12-09T10:21:29.457Z,1.20
2022-12-09T10:23:57.716Z,1.26
2022-12-09T10:26:31.369Z,1.29
2022-12-09T10:29:14.180Z,1.30
2022-12-09T10:31:41.218Z,1.32
2022-12-09T10:34:10.309Z,1.33
2022-12-09T10:36:39.391Z,1.33
2022-12-09T10:39:06.107Z,1.31
2022-12-09T10:42:03.856Z,1.33
2022-12-09T10:44:31.091Z,1.30
2022-12-09T10:47:28.173Z,1.32
2022-12-09T10:49:55.636Z,1.39
2022-12-09T10:52:25.881Z,1.43
2022-12-09T10:54:52.960Z,1.48
2022-12-09T10:57:19.621Z,1.44
2022-12-09T11:00:00.083Z,1.44
2022-12-09T11:02:27.858Z,1.44
2022-12-09T11:04:54.915Z,1.45
2022-12-09T11:07:25.014Z,1.45
2022-12-09T11:10:07.521Z,1.42
2022-12-09T11:12:41.320Z,1.42
2022-12-09T11:15:30.389Z,1.41
2022-12-09T11:18:05.117Z,1.41
2022-12-09T11:20:34.603Z,1.43
2022-12-09T11:23:15.213Z,1.45
2022-12-09T11:25:55.667Z,1.53
2022-12-09T11:28:26.154Z,1.55
2022-12-09T11:33:56.896Z,1.58
2022-12-09T11:36:48.528Z,1.59
2022-12-09T11:39:31.806Z,1.57
2022-12-09T11:42:16.961Z,1.58
2022-12-09T11:45:15.988Z,1.65
2022-12-09T11:50:36.746Z,1.66
2022-12-09T11:53:12.467Z,1.68
2022-12-09T11:55:46.012Z,1.72
2022-12-09T11:58:18.855Z,1.77
2022-12-09T12:00:51.736Z,1.78
2022-12-09T12:03:37.614Z,1.80
2022-12-09T12:06:11.545Z,1.79
2022-12-09T12:08:47.401Z,1.79
2022-12-09T12:11:28.873Z,1.79
2022-12-09T12:14:11.567Z,1.73
2022-12-09T12:16:51.333Z,1.78
2022-12-09T12:19:28.149Z,1.81
2022-12-09T12:22:31.594Z,1.83
2022-12-09T12:25:15.693Z,1.86
2022-12-09T12:27:50.910Z,1.80
2022-12-09T12:30:24.080Z,1.77
2022-12-09T12:36:09.798Z,2.65
2022-12-09T12:38:54.316Z,2.76
2022-12-09T12:41:42.752Z,2.52
2022-12-09T12:45:05.336Z,2.36
2022-12-09T12:47:40.750Z,2.31
2022-12-09T12:50:25.015Z,2.26
2022-12-09T12:53:20.256Z,2.21
2022-12-09T12:56:04.856Z,2.22
2022-12-09T12:58:45.682Z,2.23
2022-12-09T13:01:22.391Z,2.26
2022-12-09T13:04:13.371Z,2.22
2022-12-09T13:07:00.188Z,2.16
2022-12-09T13:09:38.450Z,2.17
2022-12-09T13:12:13.835Z,2.17
2022-12-09T13:14:52.039Z,2.12
2022-12-09T13:17:21.146Z,2.10
2022-12-09T13:19:52.143Z,2.04
2022-12-09T13:22:22.291Z,2.02
2022-12-09T13:25:00.424Z,2.01
2022-12-09T13:28:03.870Z,2.59
2022-12-09T13:30:39.842Z,2.59
2022-12-09T13:33:21.877Z,2.49
2022-12-09T13:36:16.069Z,2.39
2022-12-09T13:38:43.001Z,2.33
2022-12-09T13:41:31.315Z,2.29
2022-12-09T13:44:07.198Z,2.25
2022-12-09T13:46:34.292Z,2.20
2022-12-09T13:49:10.862Z,2.12
2022-12-09T13:52:03.483Z,2.11
2022-12-09T13:54:30.317Z,2.09
2022-12-09T13:57:11.027Z,2.11
2022-12-09T13:59:43.529Z,2.10
2022-12-09T14:02:16.889Z,2.11
2022-12-09T14:04:51.493Z,2.14
2022-12-09T14:07:42.948Z,2.17
2022-12-09T14:10:37.279Z,2.34
2022-12-09T14:13:05.443Z,2.35
2022-12-09T14:15:34.482Z,2.32
2022-12-09T14:18:04.035Z,2.31
2022-12-09T14:20:38.004Z,2.25
2022-12-09T14:23:11.273Z,2.20
2022-12-09T14:25:37.696Z,2.16
2022-12-09T14:28:09.907Z,2.07
2022-12-09T14:30:49.747Z,2.03
2022-12-09T14:33:32.282Z,1.98
2022-12-09T14:36:28.344Z,1.98
2022-12-09T14:39:33.390Z,2.00
2022-12-09T14:42:09.345Z,1.98
2022-12-09T14:44:56.463Z,1.95
2022-12-09T14:47:28.177Z,1.90
2022-12-09T14:50:03.534Z,1.91
2022-12-09T14:52:32.903Z,1.94
2022-12-09T14:55:04.232Z,1.86
2022-12-09T14:57:36.668Z,1.83
2022-12-09T15:00:06.033Z,1.78
2022-12-09T15:02:32.942Z,1.80
2022-12-09T15:05:01.663Z,1.81
2022-12-09T15:07:30.371Z,1.83
2022-12-09T15:09:57.973Z,1.85
2022-12-09T15:12:31.842Z,1.86
2022-12-09T15:15:20.822Z,1.82
2022-12-09T15:17:53.597Z,1.81
2022-12-09T15:20:36.327Z,1.85
2022-12-09T15:23:16.274Z,1.85
2022-12-09T15:25:47.910Z,1.86
2022-12-09T15:28:19.265Z,1.86
2022-12-09T15:30:55.290Z,1.86
2022-12-09T15:33:21.852Z,1.89
2022-12-09T15:35:59.252Z,1.91
2022-12-09T15:38:28.672Z,1.92
2022-12-09T15:41:16.521Z,1.92
2022-12-09T15:43:44.203Z,1.83
2022-12-09T15:46:12.347Z,1.82
2022-12-09T15:48:44.669Z,1.79
2022-12-09T15:51:18.242Z,1.78
2022-12-09T15:54:01.040Z,1.79
2022-12-09T15:56:38.229Z,1.78
2022-12-09T15:59:14.130Z,1.80
2022-12-09T16:01:49.054Z,1.81
2022-12-09T16:04:19.706Z,1.78
2022-12-09T16:06:47.401Z,1.78
2022-12-09T16:09:16.639Z,1.69
2022-12-09T16:11:48.989Z,1.71
2022-12-09T16:14:17.473Z,1.68
2022-12-09T16:16:55.640Z,1.73
2022-12-09T16:19:42.304Z,1.79
2022-12-09T16:22:21.185Z,1.75
2022-12-09T16:25:20.830Z,1.68
2022-12-09T16:27:50.429Z,1.62
2022-12-09T16:30:23.535Z,1.57
2022-12-09T16:33:01.734Z,1.53
2022-12-09T16:35:37.572Z,1.48
2022-12-09T16:38:09.707Z,1.46
2022-12-09T16:40:45.260Z,1.48
2022-12-09T16:43:17.494Z,1.46
2022-12-09T16:45:55.158Z,1.43
2022-12-09T16:48:24.474Z,1.48
2022-12-09T16:50:57.659Z,1.47
2022-12-09T16:53:29.464Z,1.48
2022-12-09T16:56:01.784Z,1.47
2022-12-09T16:58:31.828Z,1.45
2022-12-09T17:00:59.835Z,1.43
2022-12-09T17:03:38.725Z,1.40
2022-12-09T17:06:05.913Z,1.41
2022-12-09T17:08:32.304Z,1.40
2022-12-09T17:10:59.620Z,1.36
2022-12-09T17:13:26.437Z,1.34
2022-12-09T17:15:58.107Z,1.35
2022-12-09T17:18:25.649Z,1.35
2022-12-09T17:21:07.808Z,1.32
2022-12-09T17:23:39.638Z,1.29
2022-12-09T17:26:09.075Z,1.28
2022-12-09T17:28:35.765Z,1.31
2022-12-09T17:31:07.659Z,1.32
2022-12-09T17:33:34.152Z,1.30
2022-12-09T17:36:00.597Z,1.31
2022-12-09T17:38:29.423Z,1.31
2022-12-09T17:40:56.730Z,1.29
2022-12-09T17:43:23.174Z,1.25
2022-12-09T17:45:51.989Z,1.22
2022-12-09T17:48:18.538Z,1.20
2022-12-09T17:50:45.015Z,1.17
2022-12-09T17:53:11.387Z,1.19
2022-12-09T17:55:39.084Z,1.17
2022-12-09T17:58:05.528Z,1.16
2022-12-09T18:00:33.610Z,1.18
2022-12-09T18:03:00.227Z,1.15
2022-12-09T18:05:26.691Z,1.12
2022-12-09T18:07:53.198Z,1.11
2022-12-09T18:10:19.699Z,1.15
2022-12-09T18:12:46.056Z,1.17
2022-12-09T18:15:13.205Z,1.18
2022-12-09T18:17:40.972Z,1.19
2022-12-09T18:20:08.088Z,1.18
2022-12-09T18:22:34.787Z,1.18
2022-12-09T18:25:01.148Z,1.09
2022-12-09T18:27:27.545Z,1.07
2022-12-09T18:29:53.936Z,1.00
2022-12-09T18:32:20.476Z,1.02
2022-12-09T18:34:46.836Z,1.03
2022-12-09T18:37:13.288Z,1.04
2022-12-09T18:39:39.655Z,1.05
2022-12-09T18:42:06.595Z,1.11
2022-12-09T18:44:33.034Z,1.12
2022-12-09T18:47:00.200Z,1.13
2022-12-09T18:49:28.303Z,1.17
2022-12-09T18:51:55.719Z,1.23
2022-12-09T18:54:27.461Z,1.27
2022-12-09T18:56:55.912Z,1.22
2022-12-09T18:59:25.245Z,1.19
2022-12-09T19:01:52.586Z,1.15
2022-12-09T19:04:22.626Z,1.18
2022-12-09T19:06:51.407Z,1.22
2022-12-09T19:09:23.233Z,1.19
2022-12-09T19:11:50.893Z,1.18
2022-12-09T19:14:19.229Z,1.19
2022-12-09T19:16:46.240Z,1.15
2022-12-09T19:19:14.866Z,1.14
2022-12-09T19:21:42.269Z,1.15
2022-12-09T19:24:14.200Z,1.19
2022-12-09T19:26:42.578Z,1.19
2022-12-09T19:29:10.801Z,1.22
2022-12-09T19:31:43.086Z,1.21
2022-12-09T19:34:21.098Z,1.20
2022-12-09T19:36:49.053Z,1.20
2022-12-09T19:39:17.444Z,1.20
2022-12-09T19:41:44.884Z,1.23
2022-12-09T19:44:21.694Z,1.25
2022-12-09T19:46:57.849Z,1.26
2022-12-09T19:49:24.415Z,1.30
2022-12-09T19:51:51.325Z,1.34
2022-12-09T19:54:17.995Z,1.33
2022-12-09T19:56:45.009Z,1.32
2022-12-09T19:59:11.860Z,1.29
2022-12-09T20:01:42.201Z,1.36
2022-12-09T20:04:47.019Z,1.40
2022-12-09T20:07:06.382Z,1.46
2022-12-09T20:09:34.996Z,1.47
2022-12-09T20:12:01.389Z,1.51
2022-12-09T20:14:27.778Z,1.53
2022-12-09T20:16:54.146Z,1.56
2022-12-09T20:19:20.557Z,1.58
2022-12-09T20:21:46.949Z,1.61
2022-12-09T20:24:13.369Z,1.66
2022-12-09T20:26:40.962Z,1.63
2022-12-09T20:29:10.735Z,1.65
2022-12-09T20:31:38.923Z,1.69
2022-12-09T20:34:08.887Z,1.69
2022-12-09T20:36:36.522Z,1.65
2022-12-09T20:39:06.658Z,1.61
2022-12-09T20:41:33.242Z,1.62
2022-12-09T20:44:00.429Z,1.58
2022-12-09T20:46:30.791Z,1.54
2022-12-09T20:48:58.552Z,1.47
2022-12-09T20:51:36.660Z,1.39
2022-12-09T20:54:05.133Z,1.40
2022-12-09T20:56:33.119Z,1.42
2022-12-09T20:59:00.364Z,1.43
2022-12-09T21:01:35.239Z,1.42
2022-12-09T21:04:05.771Z,1.42
2022-12-09T21:06:34.778Z,1.32
2022-12-09T21:09:02.906Z,1.30
2022-12-09T21:11:29.327Z,1.26
2022-12-09T21:14:00.843Z,1.24
2022-12-09T21:16:32.773Z,1.26
2022-12-09T21:19:10.001Z,1.24
2022-12-09T21:21:38.258Z,1.21
2022-12-09T21:24:05.036Z,1.18
2022-12-09T21:26:31.517Z,1.19
2022-12-09T21:29:00.743Z,1.20
2022-12-09T21:31:30.262Z,1.21
2022-12-09T21:33:58.926Z,1.16
2022-12-09T21:36:27.615Z,1.18
2022-12-09T21:38:54.956Z,1.21
2022-12-09T21:41:24.832Z,1.20
2022-12-09T21:43:52.412Z,1.21
2022-12-09T21:46:21.338Z,1.16
2022-12-09T21:48:51.968Z,1.17
2022-12-09T21:51:19.521Z,1.19
2022-12-09T21:53:46.552Z,1.22
2022-12-09T21:56:15.939Z,1.22
2022-12-09T21:58:44.049Z,1.20
2022-12-09T22:01:13.965Z,1.23
2022-12-09T22:03:41.926Z,1.25
2022-12-09T22:06:09.547Z,1.29
2022-12-09T22:08:37.473Z,1.30
2022-12-09T22:11:11.777Z,1.28
2022-12-09T22:13:39.711Z,1.29
2022-12-09T22:16:15.156Z,1.29
2022-12-09T22:18:42.351Z,1.29
2022-12-09T22:21:28.645Z,1.29
2022-12-09T22:23:58.614Z,1.29
2022-12-09T22:26:26.007Z,1.29
2022-12-09T22:28:53.177Z,1.30
2022-12-09T22:31:22.874Z,1.27
2022-12-09T22:33:51.451Z,1.29
2022-12-09T22:36:18.680Z,1.32
2022-12-09T22:38:45.486Z,1.29
2022-12-09T22:41:15.216Z,1.29
2022-12-09T22:43:42.559Z,1.28
2022-12-09T22:46:14.877Z,1.23
2022-12-09T22:48:42.046Z,1.22
2022-12-09T22:51:12.182Z,1.23
2022-12-09T22:53:39.551Z,1.26
2022-12-09T22:56:06.724Z,1.30
2022-12-09T22:58:34.792Z,1.29
2022-12-09T23:01:01.741Z,1.31
2022-12-09T23:03:28.412Z,1.30
2022-12-09T23:05:55.195Z,1.31
2022-12-09T23:08:22.315Z,1.31
2022-12-09T23:10:48.915Z,1.33
2022-12-09T23:13:15.397Z,1.30
2022-12-09T23:15:41.861Z,1.29
2022-12-09T23:18:08.318Z,1.24
2022-12-09T23:20:34.995Z,1.25
2022-12-09T23:23:01.492Z,1.25
2022-12-09T23:25:27.943Z,1.25
2022-12-09T23:27:54.359Z,1.25
2022-12-09T23:30:20.807Z,1.25
2022-12-09T23:32:47.157Z,1.26
2022-12-09T23:35:13.599Z,1.26
2022-12-09T23:37:40.036Z,1.24
2022-12-09T23:40:07.480Z,1.26
2022-12-09T23:42:34.104Z,1.27
2022-12-09T23:45:00.554Z,1.27
2022-12-09T23:47:26.944Z,1.22
2022-12-09T23:49:53.367Z,1.22
2022-12-09T23:52:19.749Z,1.19
2022-12-09T23:54:46.133Z,1.14
2022-12-09T23:57:12.594Z,1.15
2022-12-09T23:59:39.027Z,1.09
